Terminal Aerodrome Forecast
Issued by NWS Rapid City, SD

Home | Current Version | Previous Version | Text Only | Print | Product List | Glossary On
Versions: 1 2 3 4 5 6 7 8 9 10 11 12 13 14 15 16 17 18 19 20 21 22 23 24 25 26 27 28 29 30 31 32
919
FTUS43 KUNR 141120
TAFRAP
TAF
KRAP 141120Z 1412/1512 29010KT P6SM SCT150
     FM142000 33015G25KT P6SM -SHRA BKN060
     FM150300 32011KT P6SM SCT200=

USA.gov is the U.S. government's official web portal to all federal, state and local government web resources and services.